Time;durP1;ratioP1;P1;durP2;ratioP2;P2;SDS_P1;SDS_P2;PMS_P1;PMS_P2;Temp;Humidity;BMP_temperature;BMP_pressure;BME280_temperature;BME280_humidity;BME280_pressure;Samples;Min_cycle;Max_cycle;Signal;HPM_P1;HPM_P2
2024/01/23 00:01:03;;;;;;;53.85;28.23;;;0.50;99.90;;;;;;5053510;28;20029;-65
2024/01/23 00:03:30;;;;;;;57.72;29.88;;;0.50;99.90;;;;;;5053521;28;20021;-65
2024/01/23 00:05:55;;;;;;;59.67;30.67;;;0.50;99.90;;;;;;5035782;28;20029;-65
2024/01/23 00:08:21;;;;;;;51.17;28.08;;;0.50;99.90;;;;;;5053312;28;20178;-65
2024/01/23 00:10:47;;;;;;;50.55;26.52;;;0.50;99.90;;;;;;5035540;28;20032;-65
2024/01/23 00:13:12;;;;;;;58.78;29.63;;;0.50;99.90;;;;;;5053498;28;20100;-64
2024/01/23 00:15:38;;;;;;;60.35;28.05;;;0.50;99.90;;;;;;5035561;28;20072;-65
2024/01/23 00:18:06;;;;;;;54.80;27.60;;;0.40;99.90;;;;;;5053499;28;20373;-65
2024/01/23 00:20:31;;;;;;;55.20;29.42;;;0.40;99.90;;;;;;5053393;28;20025;-64
2024/01/23 00:22:57;;;;;;;58.05;29.23;;;0.50;99.90;;;;;;5035512;28;20027;-63
2024/01/23 00:25:23;;;;;;;58.28;29.23;;;0.40;99.90;;;;;;5053591;28;20025;-64
2024/01/23 00:27:48;;;;;;;54.58;27.90;;;0.40;99.90;;;;;;5053203;28;20461;-64
2024/01/23 00:30:14;;;;;;;55.38;28.75;;;0.40;99.90;;;;;;5053680;28;20028;-64
2024/01/23 00:32:41;;;;;;;50.25;27.40;;;0.40;99.90;;;;;;5053051;28;20389;-64
2024/01/23 00:35:07;;;;;;;50.90;26.95;;;0.30;99.90;;;;;;5054573;28;20025;-64
2024/01/23 00:37:32;;;;;;;57.05;28.10;;;0.30;99.90;;;;;;5057115;28;20131;-65
2024/01/23 00:39:59;;;;;;;52.58;28.38;;;0.30;99.90;;;;;;5039881;28;20127;-65
2024/01/23 00:42:25;;;;;;;55.55;28.60;;;0.30;99.90;;;;;;5056921;28;20051;-65
2024/01/23 00:44:53;;;;;;;51.97;27.10;;;;;;;;;;5056865;28;20033;-65
2024/01/23 00:47:19;;;;;;;55.10;28.02;;;0.30;99.90;;;;;;5038904;28;20021;-65
2024/01/23 00:49:45;;;;;;;58.85;29.08;;;0.30;99.90;;;;;;5056507;28;20103;-65
2024/01/23 00:52:11;;;;;;;53.55;29.10;;;0.30;99.90;;;;;;5056491;28;20464;-65
2024/01/23 00:54:37;;;;;;;54.75;29.15;;;0.30;99.90;;;;;;5058893;28;20131;-66
2024/01/23 00:57:05;;;;;;;52.17;29.10;;;0.30;99.90;;;;;;5076355;28;20107;-65
2024/01/23 00:59:31;;;;;;;60.20;29.70;;;0.30;99.90;;;;;;5076516;28;20468;-65
2024/01/23 01:01:57;;;;;;;57.47;29.77;;;0.30;99.90;;;;;;5075803;28;20055;-65
2024/01/23 01:04:22;;;;;;;53.42;28.75;;;0.30;99.90;;;;;;5076566;28;20060;-65
2024/01/23 01:06:48;;;;;;;55.67;29.17;;;0.30;99.90;;;;;;5076784;28;20482;-65
2024/01/23 01:09:14;;;;;;;60.60;30.58;;;0.30;99.90;;;;;;5076710;28;20038;-65
2024/01/23 01:11:40;;;;;;;59.97;31.08;;;0.30;99.90;;;;;;5076037;28;20016;-64
2024/01/23 01:14:05;;;;;;;56.45;30.40;;;0.30;99.90;;;;;;5076328;28;20025;-65
2024/01/23 01:16:31;;;;;;;54.45;28.45;;;0.30;99.90;;;;;;5076566;28;20032;-65
2024/01/23 01:18:58;;;;;;;55.55;29.58;;;0.30;99.90;;;;;;5076178;28;20490;-65
2024/01/23 01:21:23;;;;;;;57.20;29.52;;;0.30;99.90;;;;;;5075004;28;20492;-65
2024/01/23 01:23:49;;;;;;;60.72;31.10;;;0.20;99.90;;;;;;5074590;28;20028;-65
2024/01/23 01:26:15;;;;;;;58.10;30.45;;;0.40;99.90;;;;;;5076101;28;20021;-65
2024/01/23 01:28:40;;;;;;;53.47;29.67;;;0.30;99.90;;;;;;5076011;28;20025;-65
2024/01/23 01:31:06;;;;;;;58.75;29.90;;;0.20;99.90;;;;;;5074755;28;20028;-65
2024/01/23 01:33:32;;;;;;;57.42;29.75;;;0.20;99.90;;;;;;5074730;28;20472;-65
2024/01/23 01:35:57;;;;;;;61.55;32.28;;;0.20;99.90;;;;;;5074625;28;20021;-64
2024/01/23 01:38:23;;;;;;;56.90;29.38;;;0.20;99.90;;;;;;5074583;28;20028;-64
2024/01/23 01:40:49;;;;;;;60.72;29.65;;;0.20;99.90;;;;;;5075929;28;20520;-65
2024/01/23 01:43:30;;;;;;;57.10;29.88;;;0.10;99.90;;;;;;5075815;28;20448;-65
2024/01/23 01:46:12;;;;;;;57.60;30.88;;;0.10;99.90;;;;;;5075030;28;20033;-64
2024/01/23 01:48:41;;;;;;;56.08;28.90;;;0.10;99.90;;;;;;5074949;28;20135;-64
2024/01/23 01:51:07;;;;;;;57.90;30.10;;;0.10;99.90;;;;;;5075353;28;20028;-64
2024/01/23 01:53:34;;;;;;;60.85;32.47;;;0.00;99.90;;;;;;5072400;28;20048;-65
2024/01/23 01:56:01;;;;;;;61.13;31.45;;;0.00;99.90;;;;;;5037805;28;20461;-64
2024/01/23 01:58:30;;;;;;;64.57;30.55;;;0.00;99.90;;;;;;5037485;28;20159;-65
2024/01/23 02:00:57;;;;;;;67.18;32.15;;;0.10;99.90;;;;;;5055673;28;20415;-64
2024/01/23 02:03:23;;;;;;;63.28;32.00;;;0.10;99.90;;;;;;5055423;28;20082;-65
2024/01/23 02:05:50;;;;;;;63.03;33.30;;;0.10;99.90;;;;;;5055323;28;20029;-64
2024/01/23 02:08:16;;;;;;;66.28;33.70;;;0.10;99.90;;;;;;5038078;28;20115;-64
2024/01/23 02:10:44;;;;;;;61.38;31.25;;;0.50;99.90;;;;;;5055156;28;20036;-64
2024/01/23 02:13:09;;;;;;;69.78;33.42;;;0.20;99.90;;;;;;5054912;28;20033;-65
2024/01/23 02:15:35;;;;;;;60.35;31.30;;;0.20;99.90;;;;;;5055153;28;20024;-65
2024/01/23 02:18:01;;;;;;;61.65;32.03;;;0.20;99.90;;;;;;5054729;28;20454;-65
2024/01/23 02:20:27;;;;;;;60.05;31.80;;;0.20;99.90;;;;;;5055023;28;20025;-64
2024/01/23 02:22:53;;;;;;;59.28;31.92;;;0.20;99.90;;;;;;5055119;28;20458;-65
2024/01/23 02:25:19;;;;;;;57.60;32.00;;;0.20;99.90;;;;;;5054972;28;20040;-64
2024/01/23 02:27:45;;;;;;;61.83;31.92;;;0.20;99.90;;;;;;5037384;28;20032;-65
2024/01/23 02:30:11;;;;;;;64.25;32.95;;;0.20;99.90;;;;;;5037402;28;20028;-65
2024/01/23 02:32:41;;;;;;;65.30;33.17;;;0.20;99.90;;;;;;5054817;28;20028;-64
2024/01/23 02:35:07;;;;;;;66.38;33.47;;;0.20;99.90;;;;;;5037192;28;20120;-65
2024/01/23 02:37:33;;;;;;;64.25;32.20;;;0.20;99.90;;;;;;5054350;28;20527;-65
2024/01/23 02:39:58;;;;;;;64.60;33.03;;;0.10;99.90;;;;;;5054662;28;20112;-65
2024/01/23 02:42:24;;;;;;;64.18;33.38;;;0.10;99.90;;;;;;5054753;28;20029;-65
2024/01/23 02:44:49;;;;;;;65.93;34.47;;;0.20;99.90;;;;;;5054621;28;20021;-64
2024/01/23 02:47:15;;;;;;;64.70;34.75;;;0.20;99.90;;;;;;5054229;28;20124;-65
2024/01/23 02:49:41;;;;;;;66.18;33.92;;;0.00;99.90;;;;;;5054764;28;20475;-65
2024/01/23 02:52:07;;;;;;;65.18;33.75;;;0.00;99.90;;;;;;5054806;28;20029;-64
2024/01/23 02:54:33;;;;;;;66.88;34.85;;;-0.10;99.90;;;;;;5055247;28;20448;-65
2024/01/23 02:56:59;;;;;;;64.07;33.42;;;0.00;99.90;;;;;;5074259;28;20029;-65
2024/01/23 02:59:24;;;;;;;63.35;34.35;;;-0.10;99.90;;;;;;5073950;28;20035;-65
2024/01/23 03:01:50;;;;;;;74.07;35.33;;;-0.20;99.90;;;;;;5074301;28;20024;-64
2024/01/23 03:04:16;;;;;;;70.18;34.17;;;-0.20;99.90;;;;;;5074259;28;20043;-64
2024/01/23 03:06:42;;;;;;;67.53;34.28;;;-0.30;99.90;;;;;;5073988;28;20107;-65
2024/01/23 03:09:10;;;;;;;70.30;33.53;;;-0.20;99.90;;;;;;5074278;28;20024;-64
2024/01/23 03:11:36;;;;;;;73.30;36.58;;;-0.30;99.90;;;;;;5073133;28;20056;-65
2024/01/23 03:14:03;;;;;;;70.80;35.92;;;-0.30;99.90;;;;;;5074206;28;20032;-64
2024/01/23 03:16:29;;;;;;;68.03;35.28;;;-0.30;99.90;;;;;;5074694;28;20457;-64
2024/01/23 03:18:54;;;;;;;71.05;37.00;;;-0.40;99.90;;;;;;5074633;28;20025;-65
2024/01/23 03:21:20;;;;;;;72.00;36.17;;;-0.40;99.90;;;;;;5074309;28;20448;-64
2024/01/23 03:23:46;;;;;;;74.65;36.05;;;-0.50;99.90;;;;;;5074740;28;20028;-64
2024/01/23 03:26:11;;;;;;;78.47;36.70;;;-0.40;99.90;;;;;;5073265;28;20020;-64
2024/01/23 03:28:37;;;;;;;68.32;35.75;;;-0.50;99.90;;;;;;5074838;28;20463;-64
2024/01/23 03:31:06;;;;;;;71.45;36.75;;;-0.60;99.90;;;;;;5073224;28;20025;-64
2024/01/23 03:33:32;;;;;;;;;;;-0.60;99.90;;;;;;5074653;28;20035;-64
2024/01/23 03:35:58;;;;;;;71.30;33.97;;;-0.60;99.90;;;;;;5074403;28;19905;-64
2024/01/23 03:38:24;;;;;;;73.38;36.88;;;-0.70;99.90;;;;;;5074495;28;20033;-64
2024/01/23 03:40:49;;;;;;;65.53;35.60;;;-0.70;99.90;;;;;;5073153;28;20119;-64
2024/01/23 03:43:15;;;;;;;81.07;38.05;;;-0.80;99.90;;;;;;5073033;28;20028;-64
2024/01/23 03:45:41;;;;;;;77.07;38.50;;;-0.80;99.90;;;;;;5073554;28;20032;-64
2024/01/23 03:48:06;;;;;;;82.53;37.58;;;-0.80;99.90;;;;;;5072416;28;20040;-64
2024/01/23 03:50:32;;;;;;;83.72;39.33;;;-0.80;99.90;;;;;;5073873;28;20025;-64
2024/01/23 03:52:58;;;;;;;83.72;40.05;;;-0.80;99.90;;;;;;5074093;28;20029;-64
2024/01/23 03:55:25;;;;;;;85.47;39.88;;;-0.90;99.90;;;;;;5056059;28;20045;-64
2024/01/23 03:57:51;;;;;;;82.90;41.67;;;-0.90;99.90;;;;;;5035616;28;20468;-64
2024/01/23 04:00:18;;;;;;;86.55;41.33;;;-0.90;99.90;;;;;;5053595;28;20035;-64
2024/01/23 04:02:43;;;;;;;89.03;42.35;;;-0.90;99.90;;;;;;5053368;28;20032;-64
2024/01/23 04:05:09;;;;;;;96.10;41.78;;;-0.90;99.90;;;;;;5053642;28;20083;-64
2024/01/23 04:07:35;;;;;;;89.38;42.15;;;-0.60;99.90;;;;;;5053466;28;20040;-64
2024/01/23 04:10:01;;;;;;;89.72;42.28;;;-0.90;99.90;;;;;;5054735;28;20067;-67
2024/01/23 04:12:27;;;;;;;87.63;43.15;;;-0.90;99.90;;;;;;5039605;28;20037;-64
2024/01/23 04:14:53;;;;;;;90.78;43.95;;;-0.90;99.90;;;;;;5039751;28;20031;-64
2024/01/23 04:17:19;;;;;;;95.40;44.47;;;-1.00;99.90;;;;;;5057323;28;20021;-64
2024/01/23 04:19:44;;;;;;;85.40;41.53;;;-1.00;99.90;;;;;;5057327;28;20526;-64
2024/01/23 04:22:11;;;;;;;94.80;42.38;;;-0.80;99.90;;;;;;5057621;28;20029;-64
2024/01/23 04:24:37;;;;;;;86.60;41.42;;;-1.00;99.90;;;;;;5039530;28;20029;-65
2024/01/23 04:27:04;;;;;;;87.15;41.30;;;-1.10;99.90;;;;;;5057548;28;20032;-65
2024/01/23 04:29:30;;;;;;;89.80;42.65;;;-1.20;99.90;;;;;;5057004;28;20480;-64
2024/01/23 04:31:55;;;;;;;90.32;41.85;;;-1.20;99.90;;;;;;5039213;28;20087;-65
2024/01/23 04:34:21;;;;;;;90.18;40.63;;;-1.20;99.90;;;;;;5057074;28;20071;-64
2024/01/23 04:36:48;;;;;;;92.30;43.50;;;-1.30;99.90;;;;;;5039100;28;20052;-64
2024/01/23 04:39:14;;;;;;;87.10;41.03;;;-1.30;99.90;;;;;;5056597;28;20035;-64
2024/01/23 04:41:40;;;;;;;95.70;44.00;;;-1.30;99.90;;;;;;5039045;28;20468;-64
2024/01/23 04:44:07;;;;;;;93.75;43.60;;;-1.40;99.90;;;;;;5039012;28;20025;-65
2024/01/23 04:46:32;;;;;;;93.82;44.35;;;-1.40;99.90;;;;;;5056595;28;20068;-65
2024/01/23 04:48:58;;;;;;;96.15;45.15;;;-1.40;99.90;;;;;;5056869;28;20052;-64
2024/01/23 04:51:24;;;;;;;106.97;45.08;;;-1.40;99.90;;;;;;5056823;28;20028;-64
2024/01/23 04:53:52;;;;;;;106.93;46.83;;;-1.40;99.90;;;;;;5045672;28;20044;-64
2024/01/23 04:56:18;;;;;;;77.65;35.97;;;-1.30;99.90;;;;;;5075408;28;20039;-64
2024/01/23 04:58:44;;;;;;;95.68;44.60;;;-1.30;99.90;;;;;;5076536;28;20044;-64
2024/01/23 05:01:09;;;;;;;103.70;45.95;;;-1.30;99.90;;;;;;5076288;28;20476;-64
2024/01/23 05:03:35;;;;;;;103.53;46.78;;;-1.20;99.90;;;;;;5076899;28;20480;-64
2024/01/23 05:06:01;;;;;;;107.60;47.85;;;-1.10;99.90;;;;;;5076532;28;20478;-64
2024/01/23 05:08:27;;;;;;;100.63;47.63;;;-1.20;99.90;;;;;;5076667;28;20482;-64
2024/01/23 05:10:52;;;;;;;98.72;46.97;;;-1.10;99.90;;;;;;5076529;28;20032;-64
2024/01/23 05:13:18;;;;;;;109.75;47.25;;;-1.10;99.90;;;;;;5076371;28;20025;-64
2024/01/23 05:15:43;;;;;;;107.25;49.05;;;-1.00;99.90;;;;;;5075273;28;20033;-64
2024/01/23 05:18:10;;;;;;;97.13;44.92;;;-0.90;99.90;;;;;;5074959;28;20032;-64
2024/01/23 05:20:36;;;;;;;98.55;44.42;;;-0.80;99.90;;;;;;5075941;28;20368;-65
2024/01/23 05:23:05;;;;;;;104.78;45.63;;;-0.70;99.90;;;;;;5075952;28;20376;-62
2024/01/23 05:25:31;;;;;;;94.65;46.78;;;-0.70;99.90;;;;;;5076149;28;20040;-62
2024/01/23 05:27:57;;;;;;;110.90;51.58;;;-0.60;99.90;;;;;;5076191;28;20474;-64
2024/01/23 05:30:23;;;;;;;106.88;52.15;;;-0.50;99.90;;;;;;5075835;28;20094;-63
2024/01/23 05:32:50;;;;;;;82.47;42.42;;;-0.50;99.90;;;;;;5076303;28;20029;-64
2024/01/23 05:35:16;;;;;;;109.72;55.30;;;-0.30;99.90;;;;;;5076221;28;20071;-63
2024/01/23 05:37:43;;;;;;;111.20;51.85;;;-0.20;99.90;;;;;;5075851;28;20089;-63
2024/01/23 05:40:12;;;;;;;86.90;41.45;;;-0.20;99.90;;;;;;5075906;28;20380;-63
2024/01/23 05:42:38;;;;;;;34.85;15.38;;;0.20;99.90;;;;;;5075860;28;20029;-63
2024/01/23 05:45:05;;;;;;;35.22;16.48;;;0.90;99.90;;;;;;5074774;28;20021;-63
2024/01/23 05:47:30;;;;;;;21.30;9.48;;;1.90;99.90;;;;;;5075697;28;20036;-63
2024/01/23 05:49:56;;;;;;;20.65;7.63;;;2.40;99.90;;;;;;5074134;28;20024;-63
2024/01/23 05:52:22;;;;;;;15.80;6.15;;;3.10;99.90;;;;;;5075904;28;20028;-64
2024/01/23 05:54:49;;;;;;;20.95;6.15;;;3.80;99.90;;;;;;5074125;28;20122;-63
2024/01/23 05:57:15;;;;;;;14.50;5.45;;;4.00;99.90;;;;;;5075733;28;20064;-64
2024/01/23 05:59:43;;;;;;;8.82;5.07;;;4.20;99.90;;;;;;5095620;28;20120;-64
2024/01/23 06:02:09;;;;;;;14.30;5.13;;;4.20;99.90;;;;;;5096355;28;20020;-64
2024/01/23 06:04:35;;;;;;;8.50;5.55;;;4.40;99.90;;;;;;5095646;28;20479;-64
2024/01/23 06:07:00;;;;;;;11.38;5.30;;;4.60;99.90;;;;;;5095590;28;20055;-64
2024/01/23 06:09:27;;;;;;;15.52;6.95;;;4.70;99.90;;;;;;5094264;28;20473;-64
2024/01/23 06:11:53;;;;;;;9.60;5.47;;;4.80;99.90;;;;;;5094379;28;20030;-63
2024/01/23 06:14:18;;;;;;;8.20;4.03;;;4.80;99.90;;;;;;5095405;28;20024;-64
2024/01/23 06:16:44;;;;;;;10.77;3.75;;;4.80;99.90;;;;;;5095878;28;20474;-63
2024/01/23 06:19:10;;;;;;;7.60;3.28;;;4.80;99.90;;;;;;5094037;28;20028;-64
2024/01/23 06:21:37;;;;;;;12.52;4.07;;;4.70;99.90;;;;;;5095611;28;20035;-65
2024/01/23 06:24:03;;;;;;;13.73;5.10;;;4.60;99.90;;;;;;5094384;28;20448;-65
2024/01/23 06:26:29;;;;;;;16.08;4.57;;;4.50;99.90;;;;;;5095241;28;20523;-64
2024/01/23 06:28:55;;;;;;;7.97;4.13;;;4.40;99.90;;;;;;5095170;28;20490;-64
2024/01/23 06:31:25;;;;;;;9.27;4.18;;;4.50;99.90;;;;;;5095115;28;20028;-64
2024/01/23 06:33:52;;;;;;;14.45;6.13;;;4.50;99.90;;;;;;5093281;28;20484;-64
2024/01/23 06:36:18;;;;;;;12.23;5.88;;;4.60;99.90;;;;;;5095011;28;20344;-64
2024/01/23 06:38:44;;;;;;;7.25;4.53;;;4.60;99.90;;;;;;5094755;28;20031;-64
2024/01/23 06:41:09;;;;;;;10.25;3.47;;;4.60;99.90;;;;;;5094847;28;20494;-64
2024/01/23 06:43:35;;;;;;;19.10;3.58;;;4.50;99.90;;;;;;5093625;28;20020;-64
2024/01/23 06:46:02;;;;;;;47.97;5.70;;;4.70;99.90;;;;;;5094549;28;20098;-65
2024/01/23 06:48:27;;;;;;;3.95;2.50;;;4.70;99.90;;;;;;5094375;28;20051;-64
2024/01/23 06:50:53;;;;;;;7.07;2.22;;;4.60;99.90;;;;;;5094760;28;20460;-64
2024/01/23 06:53:19;;;;;;;6.82;2.72;;;4.60;99.90;;;;;;5091837;28;20519;-64
2024/01/23 06:55:45;;;;;;;8.07;2.35;;;4.60;99.90;;;;;;5074264;28;20029;-64
2024/01/23 06:58:11;;;;;;;6.60;2.22;;;4.50;99.90;;;;;;5074240;28;20427;-64
2024/01/23 07:00:37;;;;;;;8.50;2.35;;;4.60;99.90;;;;;;5056385;28;20032;-64
2024/01/23 07:03:03;;;;;;;8.15;2.63;;;4.70;99.90;;;;;;5074244;28;20078;-64
2024/01/23 07:05:28;;;;;;;5.07;2.33;;;4.70;99.90;;;;;;5074210;28;20029;-64
2024/01/23 07:07:54;;;;;;;7.15;3.13;;;4.90;99.90;;;;;;5074334;28;20029;-63
2024/01/23 07:10:20;;;;;;;11.80;3.30;;;4.90;99.90;;;;;;5074249;28;20020;-64
2024/01/23 07:12:46;;;;;;;10.65;3.55;;;4.90;99.90;;;;;;5073841;28;20025;-64
2024/01/23 07:15:11;;;;;;;7.47;2.60;;;5.00;99.90;;;;;;5056138;28;20047;-63
2024/01/23 07:17:37;;;;;;;4.18;2.30;;;5.20;99.90;;;;;;5056058;28;20064;-64
2024/01/23 07:20:04;;;;;;;4.13;2.05;;;5.20;99.90;;;;;;5074069;28;20040;-64
2024/01/23 07:22:30;;;;;;;2.97;1.70;;;5.30;99.90;;;;;;5055991;28;20036;-64
2024/01/23 07:24:57;;;;;;;7.07;1.80;;;5.40;99.90;;;;;;5073957;28;20024;-64
2024/01/23 07:27:23;;;;;;;8.68;2.05;;;5.50;99.90;;;;;;5073729;28;20036;-64
2024/01/23 07:29:48;;;;;;;2.13;1.10;;;5.60;99.90;;;;;;5073934;28;20028;-64
2024/01/23 07:32:14;;;;;;;4.32;1.40;;;5.70;99.90;;;;;;5055997;28;20020;-64
2024/01/23 07:34:39;;;;;;;1.48;1.30;;;5.60;99.90;;;;;;5073867;28;20024;-64
2024/01/23 07:37:05;;;;;;;6.85;1.55;;;5.70;99.90;;;;;;5055696;28;20066;-65
2024/01/23 07:39:31;;;;;;;3.03;1.92;;;5.70;99.90;;;;;;5055371;28;20063;-65
2024/01/23 07:41:57;;;;;;;2.38;1.40;;;5.70;99.90;;;;;;5073480;28;20509;-64
2024/01/23 07:44:23;;;;;;;3.85;1.63;;;5.70;99.90;;;;;;5073767;28;20024;-64
2024/01/23 07:46:48;;;;;;;7.57;1.77;;;5.80;99.90;;;;;;5055742;28;20025;-64
2024/01/23 07:49:14;;;;;;;5.38;1.55;;;5.90;99.90;;;;;;5074107;28;20040;-64
2024/01/23 07:51:50;;;;;;;4.53;1.58;;;6.00;99.90;;;;;;5055714;28;20528;-65
2024/01/23 07:54:16;;;;;;;3.03;1.50;;;6.00;99.90;;;;;;5070092;28;20085;-64
2024/01/23 07:56:42;;;;;;;4.15;1.88;;;6.00;99.90;;;;;;5093570;28;20103;-64
2024/01/23 07:59:08;;;;;;;1.75;1.35;;;6.00;99.90;;;;;;5093772;28;20436;-64
2024/01/23 08:01:33;;;;;;;3.58;1.40;;;5.90;99.90;;;;;;5093963;28;20468;-64
2024/01/23 08:03:59;;;;;;;4.25;1.67;;;5.80;99.90;;;;;;5093955;28;20379;-64
2024/01/23 08:06:25;;;;;;;3.28;1.90;;;5.80;99.90;;;;;;5093745;28;20065;-63
2024/01/23 08:08:51;;;;;;;3.35;1.52;;;5.80;99.90;;;;;;5093830;28;20096;-64
2024/01/23 08:11:17;;;;;;;7.25;1.67;;;5.80;99.90;;;;;;5093726;28;20032;-64
2024/01/23 08:13:43;;;;;;;5.38;1.63;;;5.90;99.90;;;;;;5092583;28;20369;-63
2024/01/23 08:16:10;;;;;;;7.75;2.53;;;6.30;99.90;;;;;;5093762;28;20024;-64
2024/01/23 08:18:38;;;;;;;2.60;1.85;;;6.60;99.90;;;;;;5093691;28;20470;-64
2024/01/23 08:21:05;;;;;;;3.55;1.73;;;6.90;99.90;;;;;;5092352;28;20109;-64
2024/01/23 08:23:30;;;;;;;6.18;1.85;;;7.30;99.90;;;;;;5092380;28;20105;-64
2024/01/23 08:25:56;;;;;;;4.63;1.85;;;7.60;99.90;;;;;;5092232;28;20381;-64
2024/01/23 08:28:23;;;;;;;5.82;1.58;;;7.80;99.90;;;;;;5093710;28;20483;-64
2024/01/23 08:30:49;;;;;;;9.02;1.80;;;8.10;99.90;;;;;;5093528;28;20028;-64
2024/01/23 08:33:19;;;;;;;7.90;1.85;;;8.50;99.90;;;;;;5092168;28;20421;-64
2024/01/23 08:35:45;;;;;;;2.42;1.00;;;8.40;99.90;;;;;;5093650;28;20024;-64
2024/01/23 08:38:11;;;;;;;4.30;1.20;;;8.30;99.90;;;;;;5092401;28;20074;-64
2024/01/23 08:40:37;;;;;;;2.40;0.70;;;7.90;99.90;;;;;;5093648;28;20078;-64
2024/01/23 08:43:04;;;;;;;5.75;1.05;;;8.40;99.90;;;;;;5093478;28;20024;-64
2024/01/23 08:45:30;;;;;;;4.25;1.10;;;8.40;99.90;;;;;;5092169;28;20052;-64
2024/01/23 08:47:55;;;;;;;2.05;1.00;;;8.50;99.90;;;;;;5093457;28;20431;-64
2024/01/23 08:50:21;;;;;;;3.65;1.08;;;8.80;99.90;;;;;;5092018;28;20032;-64
2024/01/23 08:52:47;;;;;;;4.60;1.00;;;9.30;99.90;;;;;;5093318;28;20074;-64
2024/01/23 08:55:14;;;;;;;2.22;0.70;;;9.70;99.90;;;;;;5091827;28;20048;-64
2024/01/23 08:57:40;;;;;;;2.75;0.70;;;9.90;99.90;;;;;;5096990;28;20024;-64
2024/01/23 09:00:08;;;;;;;3.17;0.75;;;10.40;99.90;;;;;;5096693;28;20032;-63
2024/01/23 09:02:34;;;;;;;4.28;0.90;;;10.50;99.90;;;;;;5096694;28;20425;-64
2024/01/23 09:04:59;;;;;;;2.75;0.85;;;10.40;99.90;;;;;;5096844;28;20016;-64
2024/01/23 09:07:25;;;;;;;4.53;1.00;;;10.80;99.90;;;;;;5096802;28;20031;-64
2024/01/23 09:09:51;;;;;;;2.22;0.47;;;11.30;99.90;;;;;;5096621;28;20028;-64
2024/01/23 09:12:17;;;;;;;4.43;0.52;;;11.20;99.90;;;;;;5096992;28;20066;-63
2024/01/23 09:14:45;;;;;;;1.85;0.77;;;11.40;99.90;;;;;;5095417;28;20024;-63
2024/01/23 09:17:11;;;;;;;1.98;0.50;;;11.40;99.90;;;;;;5096339;28;20020;-64
2024/01/23 09:19:37;;;;;;;2.83;0.60;;;11.20;99.90;;;;;;5096193;28;20115;-64
2024/01/23 09:22:04;;;;;;;3.40;0.60;;;11.60;99.90;;;;;;5096241;28;20517;-64
2024/01/23 09:24:30;;;;;;;2.28;0.50;;;11.70;99.90;;;;;;5095193;28;20460;-63
2024/01/23 09:27:01;;;;;;;1.23;0.55;;;11.30;99.90;;;;;;5096661;28;20024;-64
2024/01/23 09:29:27;;;;;;;2.60;0.52;;;11.20;99.90;;;;;;5094857;28;20036;-64
2024/01/23 09:31:53;;;;;;;5.30;0.63;;;11.00;99.90;;;;;;5096360;28;20020;-64
2024/01/23 09:34:18;;;;;;;3.00;0.50;;;11.10;99.90;;;;;;5095334;28;20479;-63
2024/01/23 09:36:44;;;;;;;2.22;0.50;;;11.20;99.90;;;;;;5096322;28;20016;-63
2024/01/23 09:39:13;;;;;;;2.83;0.40;;;11.20;99.90;;;;;;5096151;28;20028;-64
2024/01/23 09:41:49;;;;;;;6.03;1.48;;;11.10;99.90;;;;;;5096166;28;20059;-63
2024/01/23 09:44:16;;;;;;;6.03;1.23;;;11.00;99.90;;;;;;5096151;28;20024;-64
2024/01/23 09:46:43;;;;;;;1.70;0.50;;;11.00;99.90;;;;;;5077864;28;20037;-64
2024/01/23 09:49:09;;;;;;;1.63;0.55;;;10.80;99.90;;;;;;5096181;28;20059;-64
2024/01/23 09:51:39;;;;;;;2.05;0.60;;;10.70;99.90;;;;;;5096191;28;20464;-63
2024/01/23 09:54:05;;;;;;;6.85;0.68;;;10.10;99.90;;;;;;5088797;28;20052;-64
2024/01/23 09:56:32;;;;;;;1.55;0.50;;;10.20;99.90;;;;;;5075620;28;20460;-64
2024/01/23 09:58:59;;;;;;;4.93;0.82;;;9.70;99.90;;;;;;5075679;28;20056;-64
2024/01/23 10:01:26;;;;;;;2.60;0.60;;;9.30;99.90;;;;;;5075497;28;20043;-64
2024/01/23 10:03:56;;;;;;;2.35;0.75;;;8.90;99.90;;;;;;5075440;28;20060;-64
2024/01/23 10:06:21;;;;;;;2.65;0.75;;;9.00;99.90;;;;;;5075432;28;20056;-64
2024/01/23 10:08:47;;;;;;;6.50;0.90;;;9.40;99.90;;;;;;5074013;28;20451;-63
2024/01/23 10:11:13;;;;;;;4.03;1.10;;;9.60;99.90;;;;;;5075527;28;20021;-65
2024/01/23 10:13:42;;;;;;;3.80;0.80;;;9.80;99.90;;;;;;5057463;28;20027;-64
2024/01/23 10:16:09;;;;;;;1.70;0.80;;;10.00;99.90;;;;;;5075499;28;20452;-65
2024/01/23 10:18:34;;;;;;;4.75;0.60;;;9.90;99.90;;;;;;5074957;28;20025;-64
2024/01/23 10:21:00;;;;;;;3.92;0.93;;;9.90;99.90;;;;;;5057343;28;20028;-64
2024/01/23 10:23:27;;;;;;;3.45;1.08;;;9.90;99.90;;;;;;5075415;28;20069;-64
2024/01/23 10:25:54;;;;;;;7.47;1.00;;;10.10;99.90;;;;;;5075183;28;20049;-64
2024/01/23 10:28:22;;;;;;;4.28;1.48;;;9.90;99.90;;;;;;5057049;28;20112;-64
2024/01/23 10:30:48;;;;;;;4.50;0.65;;;10.30;99.90;;;;;;5056952;28;20031;-64
2024/01/23 10:33:13;;;;;;;4.03;0.70;;;10.50;99.90;;;;;;5074896;28;20028;-63
2024/01/23 10:35:41;;;;;;;4.60;1.15;;;10.20;99.90;;;;;;5056927;28;20059;-63
2024/01/23 10:38:09;;;;;;;4.10;0.93;;;9.80;99.90;;;;;;5074634;28;20040;-64
2024/01/23 10:40:35;;;;;;;4.45;1.25;;;9.80;99.90;;;;;;5056779;28;20476;-64
2024/01/23 10:43:03;;;;;;;3.50;0.60;;;9.60;99.90;;;;;;5074498;28;20035;-64
2024/01/23 10:45:30;;;;;;;5.63;1.70;;;9.40;99.90;;;;;;5056714;28;20024;-63
2024/01/23 10:48:01;;;;;;;3.17;0.60;;;9.30;99.90;;;;;;5074695;28;20063;-64
2024/01/23 10:50:29;;;;;;;3.05;0.57;;;9.60;99.90;;;;;;5074634;28;20060;-64
2024/01/23 10:53:03;;;;;;;2.25;0.32;;;9.60;99.90;;;;;;5056406;28;20480;-64
2024/01/23 10:55:31;;;;;;;2.05;0.40;;;9.30;99.90;;;;;;5091248;28;20058;-63
2024/01/23 10:58:02;;;;;;;1.30;0.95;;;9.00;99.90;;;;;;5094633;28;20032;-64
2024/01/23 11:00:30;;;;;;;2.47;0.57;;;8.80;99.90;;;;;;5094677;28;20440;-64
2024/01/23 11:02:56;;;;;;;1.42;0.70;;;8.40;99.90;;;;;;5094621;28;20024;-64
2024/01/23 11:05:28;;;;;;;1.17;0.40;;;8.40;99.90;;;;;;5094542;28;20028;-64
2024/01/23 11:08:12;;;;;;;3.10;0.30;;;8.40;99.90;;;;;;5093378;28;20044;-64
2024/01/23 11:10:59;;;;;;;0.82;0.30;;;8.30;99.90;;;;;;5094736;28;20031;-64
2024/01/23 11:13:38;;;;;;;3.33;0.55;;;8.20;99.90;;;;;;5093385;28;20028;-64
2024/01/23 11:16:08;;;;;;;3.88;0.70;;;8.00;99.90;;;;;;5094147;28;20479;-64
2024/01/23 11:18:34;;;;;;;4.15;1.38;;;8.00;99.90;;;;;;5092730;28;20081;-64
2024/01/23 11:23:32;;;;;;;2.03;0.10;;;7.90;99.90;;;;;;5094257;28;20028;-64
2024/01/23 11:26:03;;;;;;;2.33;0.50;;;7.70;99.90;;;;;;5094403;28;20042;-64
2024/01/23 11:28:33;;;;;;;1.92;0.20;;;7.60;99.90;;;;;;5094187;28;20088;-64
2024/01/23 11:31:05;;;;;;;0.93;0.30;;;7.60;99.90;;;;;;5092843;28;20455;-64
2024/01/23 11:33:32;;;;;;;1.10;0.32;;;7.60;99.90;;;;;;5093805;28;20532;-64
2024/01/23 11:36:21;;;;;;;3.63;0.40;;;7.50;99.90;;;;;;5092838;28;20068;-64
2024/01/23 11:39:14;;;;;;;4.18;0.55;;;7.40;99.90;;;;;;5092374;28;20031;-64
2024/01/23 11:41:39;;;;;;;1.67;0.57;;;7.30;99.90;;;;;;5092550;28;20044;-64
2024/01/23 11:44:11;;;;;;;2.35;0.60;;;7.30;99.90;;;;;;5093752;28;20024;-64
2024/01/23 11:46:37;;;;;;;4.70;0.38;;;7.20;99.90;;;;;;5092400;28;20056;-64
2024/01/23 11:49:03;;;;;;;2.42;0.30;;;7.20;99.90;;;;;;5093728;28;20380;-64
2024/01/23 11:51:30;;;;;;;3.22;0.50;;;7.10;99.90;;;;;;5093929;28;20020;-63
2024/01/23 11:53:59;;;;;;;3.58;0.70;;;6.80;99.90;;;;;;5092325;28;20578;-64
2024/01/23 11:56:27;;;;;;;7.47;0.30;;;6.50;99.90;;;;;;5093969;28;20024;-64
2024/01/23 11:58:53;;;;;;;3.83;0.43;;;6.20;99.90;;;;;;5092525;28;20033;-64
2024/01/23 12:01:20;;;;;;;15.05;1.10;;;5.90;99.90;;;;;;5094068;28;20032;-65
2024/01/23 12:03:49;;;;;;;8.60;2.00;;;5.70;99.90;;;;;;5094136;28;20026;-64
2024/01/23 12:06:15;;;;;;;;;;;5.50;99.90;;;;;;5092922;28;20384;-65
2024/01/23 12:08:42;;;;;;;8.15;0.68;;;5.30;99.90;;;;;;5093939;28;19904;-64
2024/01/23 12:11:09;;;;;;;8.90;1.05;;;5.20;99.90;;;;;;5092499;28;20055;-64
2024/01/23 12:13:37;;;;;;;8.85;1.75;;;5.10;99.90;;;;;;5094089;28;20039;-63
2024/01/23 12:16:08;;;;;;;3.10;0.40;;;5.10;99.90;;;;;;5093718;28;20452;-64
2024/01/23 12:18:34;;;;;;;5.20;1.00;;;5.10;99.90;;;;;;5093631;28;20085;-64
2024/01/23 12:21:00;;;;;;;5.13;1.20;;;5.10;99.90;;;;;;5093668;28;20024;-64
2024/01/23 12:23:26;;;;;;;5.07;1.23;;;5.10;99.90;;;;;;5093736;28;20020;-64
2024/01/23 12:25:54;;;;;;;3.35;0.40;;;5.10;99.90;;;;;;5093564;28;20047;-64
2024/01/23 12:28:20;;;;;;;3.55;1.08;;;5.20;99.90;;;;;;5092282;28;20028;-64
2024/01/23 12:30:47;;;;;;;2.80;0.60;;;6.50;99.90;;;;;;5094463;28;20035;-64
2024/01/23 12:33:17;;;;;;;2.63;0.60;;;7.70;99.90;;;;;;5097459;28;20016;-64
2024/01/23 12:35:44;;;;;;;6.75;0.93;;;9.10;99.90;;;;;;5097405;28;20027;-64
2024/01/23 12:38:16;;;;;;;9.63;1.02;;;9.80;99.90;;;;;;5097562;28;20417;-64
2024/01/23 12:40:42;;;;;;;4.65;0.60;;;10.10;99.90;;;;;;5096244;28;20117;-64
2024/01/23 12:43:08;;;;;;;4.03;1.33;;;9.90;99.90;;;;;;5097257;28;20024;-64
2024/01/23 12:45:35;;;;;;;2.58;0.88;;;9.50;99.90;;;;;;5097151;28;20380;-64